KCMI/CMI METAR and TAF weather

Enter ICAO airport designator
Station Type Date Time Source
KCMI METAR 2019/06/16 06:53 UTC NOAA

KCMI 160653Z AUTO 22010KT 9SM -RA FEW050 FEW070 OVC100 19/17 A2974 RMK AO2 LTG DSNT S AND SW RAE02B25 SLP068 P0004 T01890172


Station Type Date Time Source
KCMI Decoded METAR 2019/06/16 06:53 UTC NOAA

UNIV OF ILLINOIS-WILLARD, IL, United States (KCMI) 40-02N 088-16W 228M
Jun 16, 2019 - 02:53 AM EDT / 2019.06.16 0653 UTC
Wind: from the SW (220 degrees) at 12 MPH (10 KT):0
Visibility: 9 mile(s):0
Sky conditions: overcast
Weather: light rain; Lightning observed
Precipitation last hour: 0.04 inches
Temperature: 66.0 F (18.9 C)
Dew Point: 63.0 F (17.2 C)
Relative Humidity: 89%
Pressure (altimeter): 29.74 in. Hg (1007 hPa)
ob: KCMI 160653Z AUTO 22010KT 9SM -RA FEW050 FEW070 OVC100 19/17 A2974 RMK AO2 LTG DSNT S AND SW RAE02B25 SLP068 P0004 T01890172
cycle: 7

Station Type Date Time Source
KCMI TAF 2019/06/16 06:30 UTC NOAA

TAF KCMI 160526Z 1606/1706 20009KT 4SM TSRA BR SCT010 BKN045CB OVC100
TEMPO 1606/1607 28015G30KT 1SM +TSRA BR BKN015CB OVC040
FM160700 20007KT 6SM -SHRA BR VCTS SCT035CB OVC100
TEMPO 1607/1609 4SM TSRA BR BKN015CB OVC045
FM160900 22007KT P6SM VCSH SCT025 BKN050
TEMPO 1609/1611 BKN025
FM161100 23006KT P6SM VCSH OVC020
FM161600 25007KT P6SM BKN030
FM162200 27007KT P6SM VCSH BKN050
FM170300 VRB05KT 6SM -SHRA BR BKN030

Example: see airport list